Time;durP1;ratioP1;P1;durP2;ratioP2;P2;SDS_P1;SDS_P2;PMS_P1;PMS_P2;Temp;Humidity;BMP_temperature;BMP_pressure;BME280_temperature;BME280_humidity;BME280_pressure;Samples;Min_cycle;Max_cycle;Signal;HPM_P1;HPM_P2
2023/03/19 00:00:46;;;;;;;21.25;16.75;;;;;;;9.98;100.00;-18296.75;4985460;28;20070;-84
2023/03/19 00:03:11;;;;;;;19.02;15.68;;;;;;;10.03;100.00;-18298.00;4977648;28;20420;-85
2023/03/19 00:05:37;;;;;;;15.45;11.77;;;;;;;10.14;100.00;-18301.16;4977996;28;20054;-85
2023/03/19 00:08:02;;;;;;;13.95;10.32;;;;;;;10.28;100.00;-18304.88;4987822;28;20109;-84
2023/03/19 00:10:28;;;;;;;16.17;11.82;;;;;;;10.37;100.00;-18307.19;4974744;28;20038;-84
2023/03/19 00:12:53;;;;;;;14.98;11.07;;;;;;;10.36;100.00;-18307.06;4980565;28;20057;-84
2023/03/19 00:15:19;;;;;;;12.20;8.60;;;;;;;10.41;100.00;-18308.31;4976174;28;20053;-85
2023/03/19 00:17:44;;;;;;;10.90;7.88;;;;;;;10.52;100.00;-18311.31;4973714;28;20729;-83
2023/03/19 00:20:11;;;;;;;10.57;7.10;;;;;;;10.65;100.00;-18314.63;4971799;28;20120;-85
2023/03/19 00:22:36;;;;;;;10.27;6.00;;;;;;;10.71;100.00;-18316.41;4977819;28;20049;-84
2023/03/19 00:25:02;;;;;;;11.23;6.18;;;;;;;10.85;100.00;-18320.13;4978128;28;20232;-85
2023/03/19 00:27:28;;;;;;;7.68;5.70;;;;;;;10.92;100.00;-18322.03;4976750;28;20047;-84
2023/03/19 00:29:53;;;;;;;10.35;6.88;;;;;;;10.94;100.00;-18322.59;4974415;28;20062;-84
2023/03/19 00:32:18;;;;;;;10.40;6.18;;;;;;;10.91;100.00;-18321.75;4975108;28;20045;-85
2023/03/19 00:34:44;;;;;;;12.85;6.15;;;;;;;10.92;100.00;-18321.91;4983149;28;20374;-84
2023/03/19 00:37:10;;;;;;;7.75;5.80;;;;;;;10.92;100.00;-18322.03;4966222;28;20038;-84
2023/03/19 00:39:35;;;;;;;8.48;6.03;;;;;;;10.91;100.00;-18321.75;4974496;28;20498;-84
2023/03/19 00:42:01;;;;;;;8.13;5.55;;;;;;;10.94;100.00;-18322.44;4973630;28;20050;-84
2023/03/19 00:44:26;;;;;;;6.95;4.55;;;;;;;10.97;100.00;-18323.28;4974601;28;20098;-85
2023/03/19 00:46:51;;;;;;;8.32;4.53;;;;;;;11.05;100.00;-18325.59;4980317;28;20399;-84
2023/03/19 00:49:17;;;;;;;7.85;5.03;;;;;;;11.06;100.00;-18325.75;4974219;28;20564;-85
2023/03/19 00:51:42;;;;;;;7.55;4.70;;;;;;;11.08;100.00;-18326.28;4956094;28;20493;-84
2023/03/19 00:54:11;;;;;;;8.27;5.22;;;;;;;11.03;100.00;-18324.94;4979911;28;20137;-85
2023/03/19 00:56:37;;;;;;;7.30;5.15;;;;;;;10.93;100.00;-18322.19;4969569;28;20035;-85
2023/03/19 00:59:03;;;;;;;9.38;5.95;;;;;;;10.83;100.00;-18319.69;4964505;28;20042;-85
2023/03/19 01:01:28;;;;;;;9.75;5.40;;;;;;;10.76;100.00;-18317.78;4977117;28;20038;-85
2023/03/19 01:03:53;;;;;;;8.43;5.30;;;;;;;10.71;100.00;-18316.28;4985158;28;20073;-84
2023/03/19 01:06:19;;;;;;;8.40;5.18;;;;;;;10.78;100.00;-18318.31;4972199;28;20074;-84
2023/03/19 01:08:44;;;;;;;10.52;6.20;;;;;;;10.73;100.00;-18316.81;4973428;28;20502;-84
2023/03/19 01:11:13;;;;;;;10.80;6.03;;;;;;;10.64;100.00;-18314.34;4981737;28;20046;-85
2023/03/19 01:13:39;;;;;;;8.27;6.20;;;;;;;10.60;100.00;-18313.38;4968847;28;20043;-85
2023/03/19 01:16:05;;;;;;;9.15;6.22;;;;;;;10.62;100.00;-18313.94;4966675;28;20101;-85
2023/03/19 01:18:30;;;;;;;8.27;5.65;;;;;;;10.56;100.00;-18312.44;4959474;28;20054;-85
2023/03/19 01:20:56;;;;;;;9.05;5.82;;;;;;;10.50;100.00;-18310.63;4975784;28;20050;-85
2023/03/19 01:23:21;;;;;;;11.05;5.78;;;;;;;10.52;100.00;-18311.19;4973820;28;20498;-85
2023/03/19 01:25:47;;;;;;;9.82;5.90;;;;;;;10.50;100.00;-18310.63;4971832;28;20062;-85
2023/03/19 01:28:12;;;;;;;7.95;6.60;;;;;;;10.42;100.00;-18308.44;4973733;28;20038;-85
2023/03/19 01:30:39;;;;;;;11.23;7.10;;;;;;;10.27;100.00;-18304.44;4983271;28;20274;-85
2023/03/19 01:33:06;;;;;;;9.30;6.65;;;;;;;10.20;100.00;-18302.53;4973066;28;20180;-85
2023/03/19 01:35:31;;;;;;;8.43;7.35;;;;;;;10.21;100.00;-18302.94;4982669;28;20041;-84
2023/03/19 01:37:56;;;;;;;8.73;7.38;;;;;;;10.16;100.00;-18301.69;4972036;28;20474;-85
2023/03/19 01:40:22;;;;;;;10.95;7.90;;;;;;;10.11;100.00;-18300.31;4976946;28;20122;-84
2023/03/19 01:42:56;;;;;;;12.02;8.35;;;;;;;10.13;100.00;-18300.88;4977926;28;20038;-84
2023/03/19 01:45:32;;;;;;;10.35;8.40;;;;;;;10.14;100.00;-18301.16;4975269;28;20043;-84
2023/03/19 01:47:58;;;;;;;11.10;9.10;;;;;;;10.13;100.00;-18300.88;4980779;28;20070;-84
2023/03/19 01:50:29;;;;;;;12.20;8.68;;;;;;;10.12;100.00;-18300.47;4974079;28;20113;-85
2023/03/19 01:52:55;;;;;;;11.90;8.70;;;;;;;10.08;100.00;-18299.50;4975050;28;20038;-85
2023/03/19 01:55:21;;;;;;;12.38;9.02;;;;;;;10.04;100.00;-18298.25;4973916;28;20061;-84
2023/03/19 01:57:46;;;;;;;11.25;8.80;;;;;;;10.04;100.00;-18298.41;4955099;28;20073;-85
2023/03/19 02:00:13;;;;;;;10.80;9.02;;;;;;;10.00;100.00;-18297.16;4965961;28;20046;-85
2023/03/19 02:02:40;;;;;;;11.63;8.85;;;;;;;10.03;100.00;-18298.00;4967746;28;20089;-85
2023/03/19 02:05:10;;;;;;;11.32;8.75;;;;;;;10.00;100.00;-18297.16;4970551;28;20055;-84
2023/03/19 02:07:38;;;;;;;12.02;8.63;;;;;;;9.97;100.00;-18296.47;4974120;28;20081;-85
2023/03/19 02:10:08;;;;;;;10.88;8.98;;;;;;;9.93;100.00;-18295.50;4972106;28;20514;-85
2023/03/19 02:12:34;;;;;;;12.10;9.13;;;;;;;9.97;100.00;-18296.47;4975571;28;20091;-85
2023/03/19 02:14:59;;;;;;;11.93;8.55;;;;;;;9.95;100.00;-18295.94;4974199;28;20046;-84
2023/03/19 02:17:27;;;;;;;9.27;7.97;;;;;;;9.84;100.00;-18293.03;4954647;28;20054;-85
2023/03/19 02:20:17;;;;;;;10.18;8.20;;;;;;;9.90;100.00;-18294.69;4952073;28;20043;-85
2023/03/19 02:22:51;;;;;;;10.35;8.27;;;;;;;9.75;100.00;-18290.44;4969832;28;20072;-85
2023/03/19 02:25:40;;;;;;;10.95;8.43;;;;;;;9.70;100.00;-18289.31;4965399;28;20049;-84
2023/03/19 02:28:08;;;;;;;11.18;8.98;;;;;;;9.63;100.00;-18287.41;4960453;28;20058;-84
2023/03/19 02:30:34;;;;;;;11.13;8.80;;;;;;;9.65;100.00;-18287.94;4956864;28;20049;-84
2023/03/19 02:33:00;;;;;;;11.27;8.80;;;;;;;9.64;100.00;-18287.53;4976043;28;20057;-85
2023/03/19 02:35:29;;;;;;;12.20;9.82;;;;;;;9.57;100.00;-18285.75;4974866;28;20144;-85
2023/03/19 02:37:55;;;;;;;14.85;10.38;;;;;;;9.55;100.00;-18285.19;4975460;28;21070;-85
2023/03/19 02:40:25;;;;;;;12.23;10.23;;;;;;;9.57;100.00;-18285.63;4981592;28;20088;-85
2023/03/19 02:42:51;;;;;;;13.45;11.07;;;;;;;9.57;100.00;-18285.75;4969452;28;20093;-85
2023/03/19 02:45:17;;;;;;;12.68;10.65;;;;;;;9.57;100.00;-18285.63;4959697;28;20497;-85
2023/03/19 02:47:42;;;;;;;12.60;11.05;;;;;;;9.58;100.00;-18285.88;4982254;28;20045;-86
2023/03/19 02:50:08;;;;;;;16.48;11.20;;;;;;;9.55;100.00;-18285.19;4972546;28;20062;-85
2023/03/19 02:52:34;;;;;;;12.82;10.90;;;;;;;9.54;100.00;-18284.94;4972588;28;20046;-85
2023/03/19 02:54:59;;;;;;;12.52;10.80;;;;;;;9.53;100.00;-18284.66;4960468;28;20728;-85
2023/03/19 02:57:25;;;;;;;16.50;13.18;;;;;;;9.56;100.00;-18285.47;4977553;28;20050;-85
2023/03/19 02:59:50;;;;;;;16.73;12.75;;;;;;;9.58;100.00;-18285.88;4971097;28;20474;-85
2023/03/19 03:02:16;;;;;;;15.57;13.60;;;;;;;9.58;100.00;-18286.03;4960877;28;20047;-85
2023/03/19 03:04:41;;;;;;;15.63;13.07;;;;;;;9.59;100.00;-18286.31;4976484;28;20519;-86
2023/03/19 03:07:07;;;;;;;16.85;14.65;;;;;;;9.63;100.00;-18287.25;4993908;28;20047;-85
2023/03/19 03:09:33;;;;;;;18.88;14.05;;;;;;;9.61;100.00;-18286.84;4986679;28;20046;-85
2023/03/19 03:11:59;;;;;;;18.52;14.20;;;;;;;9.62;100.00;-18287.00;4977292;28;20038;-85
2023/03/19 03:14:24;;;;;;;16.83;13.75;;;;;;;9.61;100.00;-18286.72;4996313;28;20105;-85
2023/03/19 03:16:49;;;;;;;20.38;14.93;;;;;;;9.61;100.00;-18286.84;4981447;28;20046;-86
2023/03/19 03:19:15;;;;;;;17.95;14.52;;;;;;;9.61;100.00;-18286.72;4993185;28;20043;-84
2023/03/19 03:21:41;;;;;;;20.25;14.50;;;;;;;9.60;100.00;-18286.56;4981733;28;20407;-85
2023/03/19 03:24:08;;;;;;;18.27;14.65;;;;;;;9.61;100.00;-18286.72;4989741;28;20329;-85
2023/03/19 03:26:35;;;;;;;21.17;15.60;;;;;;;9.59;100.00;-18286.31;4993133;28;20040;-85
2023/03/19 03:29:00;;;;;;;21.13;15.30;;;;;;;9.57;100.00;-18285.63;4956617;28;20061;-85
2023/03/19 03:31:26;;;;;;;18.98;15.27;;;;;;;9.57;100.00;-18285.75;4984294;28;20047;-85
2023/03/19 03:33:52;;;;;;;19.65;16.08;;;;;;;9.57;100.00;-18285.63;4986623;28;20045;-85
2023/03/19 03:36:17;;;;;;;20.92;15.45;;;;;;;9.59;100.00;-18286.16;4978865;28;20050;-85
2023/03/19 03:38:44;;;;;;;20.80;15.73;;;;;;;9.63;100.00;-18287.25;4981834;28;20062;-85
2023/03/19 03:41:09;;;;;;;20.52;16.67;;;;;;;9.64;100.00;-18287.53;4979166;28;20046;-85
2023/03/19 03:43:35;;;;;;;23.25;17.30;;;;;;;9.60;100.00;-18286.56;4986248;28;20494;-85
2023/03/19 03:46:00;;;;;;;21.55;16.50;;;;;;;9.63;100.00;-18287.25;4976743;28;20086;-85
2023/03/19 03:48:25;;;;;;;20.45;15.80;;;;;;;9.59;100.00;-18286.16;4980651;28;20070;-84
2023/03/19 03:50:51;;;;;;;19.83;16.52;;;;;;;9.57;100.00;-18285.63;4985521;28;20074;-85
2023/03/19 03:53:16;;;;;;;20.77;16.25;;;;;;;9.58;100.00;-18286.03;4990497;28;20080;-85
2023/03/19 03:55:42;;;;;;;21.02;15.60;;;;;;;9.60;100.00;-18286.56;4983315;28;20379;-85
2023/03/19 03:58:07;;;;;;;19.67;15.57;;;;;;;9.62;100.00;-18287.00;4983741;28;20078;-85
2023/03/19 04:00:32;;;;;;;21.33;15.95;;;;;;;9.65;100.00;-18287.94;4968405;28;20176;-85
2023/03/19 04:02:58;;;;;;;19.30;16.02;;;;;;;9.65;100.00;-18287.94;4967764;28;20096;-85
2023/03/19 04:05:24;;;;;;;22.35;16.85;;;;;;;9.64;100.00;-18287.69;4988325;28;20046;-85
2023/03/19 04:07:50;;;;;;;17.92;15.43;;;;;;;9.72;100.00;-18289.75;4994195;28;20080;-85
2023/03/19 04:10:16;;;;;;;21.95;15.48;;;;;;;9.76;100.00;-18290.84;4992309;28;20086;-85
2023/03/19 04:12:41;;;;;;;19.92;14.60;;;;;;;9.79;100.00;-18291.53;4994244;28;20133;-85
2023/03/19 04:15:09;;;;;;;18.13;14.88;;;;;;;9.77;100.00;-18290.97;4991612;28;20038;-85
2023/03/19 04:17:35;;;;;;;20.75;15.32;;;;;;;9.82;100.00;-18292.50;4979337;28;20046;-86
2023/03/19 04:20:04;;;;;;;20.60;15.18;;;;;;;9.81;100.00;-18292.06;4974933;28;20593;-85
2023/03/19 04:22:30;;;;;;;18.15;14.32;;;;;;;9.84;100.00;-18293.03;4998713;28;20042;-85
2023/03/19 04:24:56;;;;;;;18.92;15.57;;;;;;;9.88;100.00;-18294.00;4991820;28;20073;-85
2023/03/19 04:27:21;;;;;;;18.83;14.10;;;;;;;9.87;100.00;-18293.72;4961100;28;20493;-85
2023/03/19 04:29:46;;;;;;;16.63;14.13;;;;;;;9.90;100.00;-18294.56;4991390;28;20034;-85
2023/03/19 04:32:12;;;;;;;18.77;13.95;;;;;;;9.82;100.00;-18292.34;4993673;28;20061;-85
2023/03/19 04:34:38;;;;;;;20.83;15.38;;;;;;;9.79;100.00;-18291.53;4973350;28;20472;-85
2023/03/19 04:37:03;;;;;;;19.10;14.60;;;;;;;9.78;100.00;-18291.25;4977768;28;20065;-85
2023/03/19 04:39:28;;;;;;;16.58;13.35;;;;;;;9.79;100.00;-18291.53;4994461;28;20039;-85
2023/03/19 04:41:54;;;;;;;18.65;13.15;;;;;;;9.87;100.00;-18293.88;4972827;28;20043;-84
2023/03/19 04:44:20;;;;;;;17.10;13.02;;;;;;;9.95;100.00;-18295.94;4971241;28;20035;-85
2023/03/19 04:46:46;;;;;;;19.70;13.45;;;;;;;9.90;100.00;-18294.69;4989692;28;20030;-85
2023/03/19 04:49:11;;;;;;;17.77;13.40;;;;;;;9.94;100.00;-18295.66;4991814;28;20468;-85
2023/03/19 04:51:37;;;;;;;16.60;12.25;;;;;;;9.97;100.00;-18296.47;4991795;28;20873;-85
2023/03/19 04:54:04;;;;;;;14.10;11.50;;;;;;;10.01;100.00;-18297.56;4989400;28;20453;-85
2023/03/19 04:56:30;;;;;;;13.85;10.85;;;;;;;10.02;100.00;-18297.72;4996559;28;20412;-85
2023/03/19 04:58:55;;;;;;;13.77;11.25;;;;;;;10.19;100.00;-18302.25;4983024;28;20046;-85
2023/03/19 05:01:21;;;;;;;14.32;11.10;;;;;;;10.27;100.00;-18304.44;4991001;28;20421;-85
2023/03/19 05:03:46;;;;;;;13.68;9.63;;;;;;;10.31;100.00;-18305.56;4992298;28;20050;-85
2023/03/19 05:06:12;;;;;;;14.40;9.98;;;;;;;10.27;100.00;-18304.44;4972240;28;20038;-85
2023/03/19 05:08:37;;;;;;;12.95;9.75;;;;;;;10.27;100.00;-18304.44;4973640;28;20037;-85
2023/03/19 05:11:03;;;;;;;16.75;10.00;;;;;;;10.28;100.00;-18304.88;4971524;28;20057;-85
2023/03/19 05:13:28;;;;;;;15.43;10.48;;;;;;;10.27;100.00;-18304.44;4970041;28;20046;-86
2023/03/19 05:15:54;;;;;;;15.00;11.35;;;;;;;10.30;100.00;-18305.28;4974858;28;20105;-85
2023/03/19 05:18:20;;;;;;;13.43;10.55;;;;;;;10.30;100.00;-18305.28;5000950;28;20383;-85
2023/03/19 05:20:46;;;;;;;14.77;10.15;;;;;;;10.32;100.00;-18305.81;4960165;28;1090624;-85
2023/03/19 05:23:12;;;;;;;12.60;9.63;;;;;;;10.29;100.00;-18305.00;4991213;28;20421;-85
2023/03/19 05:25:37;;;;;;;13.90;9.80;;;;;;;10.29;100.00;-18305.00;4994196;28;20050;-85
2023/03/19 05:28:03;;;;;;;12.07;9.48;;;;;;;10.32;100.00;-18305.97;4997744;28;20092;-85
2023/03/19 05:30:30;;;;;;;11.90;8.15;;;;;;;10.28;100.00;-18304.72;4972101;28;20050;-85
2023/03/19 05:32:57;;;;;;;14.40;8.98;;;;;;;10.35;100.00;-18306.78;4991763;28;20038;-85
2023/03/19 05:35:23;;;;;;;13.10;9.52;;;;;;;10.38;100.00;-18307.47;4991227;28;20069;-86
2023/03/19 05:37:49;;;;;;;13.50;9.32;;;;;;;10.39;100.00;-18307.88;4997129;28;20465;-85
2023/03/19 05:40:15;;;;;;;12.63;9.70;;;;;;;10.31;100.00;-18305.69;4973885;28;20046;-85
2023/03/19 05:42:41;;;;;;;13.15;8.60;;;;;;;10.35;100.00;-18306.78;4991524;28;20540;-86
2023/03/19 05:45:07;;;;;;;12.10;9.13;;;;;;;10.41;100.00;-18308.16;4975817;28;20050;-85
2023/03/19 05:47:33;;;;;;;11.07;8.65;;;;;;;10.45;100.00;-18309.41;4987179;28;20046;-85
2023/03/19 05:49:59;;;;;;;11.40;7.80;;;;;;;10.49;100.00;-18310.38;4962608;28;20039;-85
2023/03/19 05:52:25;;;;;;;12.70;8.80;;;;;;;10.50;100.00;-18310.63;4973713;28;20038;-85
2023/03/19 05:54:50;;;;;;;14.77;9.07;;;;;;;10.38;100.00;-18307.63;4972749;28;20054;-85
2023/03/19 05:57:15;;;;;;;12.00;8.45;;;;;;;10.35;100.00;-18306.78;4973925;28;20577;-85
2023/03/19 05:59:41;;;;;;;14.63;9.65;;;;;;;10.33;100.00;-18306.09;4958523;28;20035;-86
2023/03/19 06:02:07;;;;;;;13.10;9.68;;;;;;;10.26;100.00;-18304.16;4976507;28;20046;-85
2023/03/19 06:04:32;;;;;;;13.80;10.93;;;;;;;10.19;100.00;-18302.38;4974256;28;20122;-85
2023/03/19 06:06:57;;;;;;;14.32;11.23;;;;;;;10.16;100.00;-18301.69;4974054;28;20034;-86
2023/03/19 06:09:23;;;;;;;16.33;11.20;;;;;;;10.13;100.00;-18300.75;4978129;28;20561;-85
2023/03/19 06:11:49;;;;;;;15.48;12.32;;;;;;;10.11;100.00;-18300.31;4977313;28;20057;-85
2023/03/19 06:14:14;;;;;;;16.35;11.38;;;;;;;10.11;100.00;-18300.31;4978344;28;20081;-85
2023/03/19 06:16:39;;;;;;;16.10;11.77;;;;;;;10.12;100.00;-18300.47;4974969;28;20042;-85
2023/03/19 06:19:05;;;;;;;18.80;12.88;;;;;;;10.10;100.00;-18299.91;4959775;28;20038;-85
2023/03/19 06:21:30;;;;;;;20.05;13.57;;;;;;;10.08;100.00;-18299.50;4971659;28;20046;-85
2023/03/19 06:23:56;;;;;;;18.02;14.13;;;;;;;10.11;100.00;-18300.31;4974008;28;20039;-85
2023/03/19 06:26:22;;;;;;;19.15;14.32;;;;;;;10.22;100.00;-18303.22;4980865;28;20050;-86
2023/03/19 06:28:47;;;;;;;17.92;13.35;;;;;;;10.06;100.00;-18298.81;4966730;28;20139;-85
2023/03/19 06:31:13;;;;;;;18.02;14.10;;;;;;;10.02;100.00;-18297.84;4963889;28;20046;-85
2023/03/19 06:33:38;;;;;;;18.92;13.63;;;;;;;9.98;100.00;-18296.75;4987728;28;20065;-85
2023/03/19 06:36:04;;;;;;;18.15;12.68;;;;;;;9.95;100.00;-18295.94;4979930;28;20049;-85
2023/03/19 06:38:30;;;;;;;19.50;15.18;;;;;;;9.96;100.00;-18296.19;4985245;28;20053;-85
2023/03/19 06:40:55;;;;;;;21.35;15.45;;;;;;;9.98;100.00;-18296.63;4985582;28;20072;-84
2023/03/19 06:43:21;;;;;;;20.85;15.23;;;;;;;9.96;100.00;-18296.06;4984906;28;20038;-85
2023/03/19 06:45:46;;;;;;;26.45;18.08;;;;;;;9.99;100.00;-18296.88;4983850;28;20074;-84
2023/03/19 06:48:11;;;;;;;23.45;17.33;;;;;;;10.00;100.00;-18297.16;4987721;28;20215;-85
2023/03/19 06:50:37;;;;;;;26.15;19.08;;;;;;;10.04;100.00;-18298.25;4985303;28;20050;-85
2023/03/19 06:53:03;;;;;;;25.25;18.85;;;;;;;10.02;100.00;-18297.84;4984651;28;20524;-85
2023/03/19 06:55:29;;;;;;;26.58;19.83;;;;;;;10.11;100.00;-18300.19;4981176;28;20137;-85
2023/03/19 06:57:55;;;;;;;23.42;17.50;;;;;;;10.06;100.00;-18298.81;4983223;28;20046;-85
2023/03/19 07:00:20;;;;;;;24.45;17.80;;;;;;;10.05;100.00;-18298.53;4973637;28;20485;-84
2023/03/19 07:02:46;;;;;;;24.75;20.73;;;;;;;10.09;100.00;-18299.78;4981771;28;20039;-84
2023/03/19 07:05:12;;;;;;;23.00;18.27;;;;;;;10.10;100.00;-18299.91;4980343;28;20402;-85
2023/03/19 07:07:37;;;;;;;22.77;14.48;;;;;;;10.12;100.00;-18300.59;4982468;28;20065;-87
2023/03/19 07:10:03;;;;;;;26.50;18.50;;;;;;;10.19;100.00;-18302.38;4981469;28;20413;-85
2023/03/19 07:12:28;;;;;;;22.13;15.85;;;;;;;10.16;100.00;-18301.69;4986511;28;20073;-85
2023/03/19 07:14:55;;;;;;;20.92;17.52;;;;;;;10.17;100.00;-18301.84;4959952;28;20451;-85
2023/03/19 07:17:21;;;;;;;22.05;17.77;;;;;;;10.20;100.00;-18302.53;4987466;28;20042;-85
2023/03/19 07:19:47;;;;;;;21.00;16.27;;;;;;;10.16;100.00;-18301.56;4974321;28;20446;-85
2023/03/19 07:22:12;;;;;;;19.92;15.55;;;;;;;10.20;100.00;-18302.66;4972625;28;20043;-85
2023/03/19 07:24:38;;;;;;;20.85;16.17;;;;;;;10.22;100.00;-18303.22;4987159;28;20106;-85
2023/03/19 07:27:03;;;;;;;20.52;16.77;;;;;;;10.20;100.00;-18302.53;4982862;28;20049;-85
2023/03/19 07:29:29;;;;;;;21.60;14.63;;;;;;;10.25;100.00;-18304.03;4960510;28;20073;-85
2023/03/19 07:31:54;;;;;;;18.42;13.02;;;;;;;10.26;100.00;-18304.16;4977639;28;20058;-84
2023/03/19 07:34:20;;;;;;;20.73;14.98;;;;;;;10.30;100.00;-18305.41;4981632;28;20035;-85
2023/03/19 07:36:48;;;;;;;20.00;15.68;;;;;;;10.38;100.00;-18307.63;4985566;28;20062;-84
2023/03/19 07:39:13;;;;;;;20.98;17.10;;;;;;;10.27;100.00;-18304.59;4993919;28;20042;-84
2023/03/19 07:41:39;;;;;;;23.30;17.05;;;;;;;10.29;100.00;-18305.00;4976700;28;20049;-84
2023/03/19 07:44:05;;;;;;;21.63;16.35;;;;;;;10.30;100.00;-18305.28;4992892;28;20509;-84
2023/03/19 07:46:31;;;;;;;22.88;17.98;;;;;;;10.36;100.00;-18306.94;4976006;28;20247;-84
2023/03/19 07:48:56;;;;;;;24.45;17.83;;;;;;;10.34;100.00;-18306.50;4992947;28;20056;-84
2023/03/19 07:51:21;;;;;;;22.60;17.33;;;;;;;10.39;100.00;-18307.75;4992901;28;20047;-86
2023/03/19 07:53:47;;;;;;;21.98;16.80;;;;;;;10.43;100.00;-18308.84;4994809;28;20379;-84
2023/03/19 07:56:12;;;;;;;22.88;16.80;;;;;;;10.43;100.00;-18308.72;4982738;28;20406;-85
2023/03/19 07:58:38;;;;;;;23.27;16.63;;;;;;;10.43;100.00;-18308.72;4985181;28;20117;-85
2023/03/19 08:01:03;;;;;;;22.33;17.45;;;;;;;10.49;100.00;-18310.38;4959295;28;20034;-85
2023/03/19 08:03:29;;;;;;;25.05;16.45;;;;;;;10.55;100.00;-18312.00;4949942;28;20039;-86
2023/03/19 08:05:54;;;;;;;21.63;16.08;;;;;;;10.59;100.00;-18313.13;4985630;28;20450;-85
2023/03/19 08:08:19;;;;;;;22.75;15.63;;;;;;;10.63;100.00;-18314.22;4984409;28;20060;-85
2023/03/19 08:10:46;;;;;;;25.75;19.52;;;;;;;10.68;100.00;-18315.44;4992966;28;20046;-85
2023/03/19 08:13:13;;;;;;;24.40;18.13;;;;;;;10.65;100.00;-18314.63;4980189;28;20034;-85
2023/03/19 08:15:48;;;;;;;23.88;16.15;;;;;;;10.60;100.00;-18313.38;4989527;28;20042;-85
2023/03/19 08:18:13;;;;;;;23.33;16.45;;;;;;;10.60;100.00;-18313.38;4994798;28;20065;-85
2023/03/19 08:20:39;;;;;;;26.27;17.45;;;;;;;10.61;100.00;-18313.78;4991998;28;20126;-85
2023/03/19 08:23:04;;;;;;;24.23;16.85;;;;;;;10.61;100.00;-18313.78;4990940;28;20505;-84
2023/03/19 08:25:31;;;;;;;23.65;17.17;;;;;;;10.67;100.00;-18315.31;4987492;28;20072;-84
2023/03/19 08:28:00;;;;;;;22.10;15.70;;;;;;;10.68;100.00;-18315.59;4991656;28;20529;-85
2023/03/19 08:30:26;;;;;;;19.45;13.43;;;;;;;10.69;100.00;-18315.72;4966370;28;20149;-85
2023/03/19 08:32:51;;;;;;;19.95;15.10;;;;;;;10.75;100.00;-18317.38;4986900;28;20513;-86
2023/03/19 08:35:16;;;;;;;19.65;13.85;;;;;;;10.78;100.00;-18318.31;4979759;28;20054;-85
2023/03/19 08:37:42;;;;;;;21.10;15.60;;;;;;;10.94;100.00;-18322.59;4991571;28;20112;-85
2023/03/19 08:40:08;;;;;;;18.05;13.90;;;;;;;11.03;100.00;-18324.94;4992996;28;20050;-84
2023/03/19 08:42:34;;;;;;;17.35;14.48;;;;;;;11.16;100.00;-18328.34;4992067;28;20045;-85
2023/03/19 08:44:59;;;;;;;17.90;11.93;;;;;;;11.21;100.00;-18329.72;4974138;28;20043;-85
2023/03/19 08:47:25;;;;;;;16.83;10.57;;;;;;;11.26;100.00;-18331.09;4993200;28;20033;-85
2023/03/19 08:49:52;;;;;;;17.15;11.00;;;;;;;11.26;100.00;-18331.25;4982051;28;20046;-85
2023/03/19 08:52:18;;;;;;;14.05;9.98;;;;;;;11.21;100.00;-18329.72;4995050;28;20050;-85
2023/03/19 08:54:44;;;;;;;13.70;8.68;;;;;;;11.18;100.00;-18328.91;4994566;28;20030;-85
2023/03/19 08:57:10;;;;;;;13.07;9.07;;;;;;;11.22;100.00;-18330.00;4991883;28;20115;-85
2023/03/19 08:59:35;;;;;;;13.93;9.85;;;;;;;11.38;100.00;-18334.41;4975359;28;20077;-85
2023/03/19 09:02:01;;;;;;;13.98;9.55;;;;;;;11.41;100.00;-18335.09;4998312;28;20509;-85
2023/03/19 09:04:26;;;;;;;15.18;10.55;;;;;;;11.47;100.00;-18336.72;4993307;28;20042;-84
2023/03/19 09:06:51;;;;;;;11.75;8.30;;;;;;;11.52;100.00;-18338.09;4974600;28;20137;-85
2023/03/19 09:09:18;;;;;;;11.43;8.02;;;;;;;11.57;100.00;-18339.47;4971046;28;20046;-85
2023/03/19 09:11:44;;;;;;;12.77;7.90;;;;;;;11.58;100.00;-18339.63;4985522;28;20046;-85
2023/03/19 09:14:10;;;;;;;9.82;6.57;;;;;;;11.68;100.00;-18342.34;4969955;28;20050;-85
2023/03/19 09:16:36;;;;;;;12.23;8.25;;;;;;;11.76;100.00;-18344.56;5000933;28;20054;-84
2023/03/19 09:19:01;;;;;;;12.35;7.88;;;;;;;11.73;100.00;-18343.88;4981159;28;20062;-85
2023/03/19 09:21:26;;;;;;;9.85;7.53;;;;;;;11.66;100.00;-18341.94;4998347;28;20038;-85
2023/03/19 09:23:52;;;;;;;10.73;7.47;;;;;;;11.62;100.00;-18340.72;4981268;28;20043;-85
2023/03/19 09:26:17;;;;;;;11.70;7.72;;;;;;;11.78;100.00;-18345.09;4997088;28;20069;-85
2023/03/19 09:28:42;;;;;;;12.88;8.07;;;;;;;11.82;100.00;-18346.19;4983530;28;20046;-85
2023/03/19 09:31:10;;;;;;;12.60;8.02;;;;;;;11.79;100.00;-18345.25;5003872;28;20038;-85
2023/03/19 09:33:35;;;;;;;11.93;7.93;;;;;;;11.89;100.00;-18348.00;4993137;28;20043;-84
2023/03/19 09:36:01;;;;;;;10.98;8.30;;;;;;;11.82;100.00;-18346.06;4984909;28;20041;-85
2023/03/19 09:38:27;;;;;;;11.23;8.65;;;;;;;11.90;100.00;-18348.41;4992213;28;20054;-85
2023/03/19 09:41:30;;;;;;;12.00;8.85;;;;;;;11.96;100.00;-18350.03;4995541;28;20042;-85
2023/03/19 09:44:10;;;;;;;11.05;7.70;;;;;;;11.99;100.00;-18350.72;4995119;28;20038;-85
2023/03/19 09:46:42;;;;;;;15.10;8.45;;;;;;;12.02;100.00;-18351.41;4994227;28;20078;-84
2023/03/19 09:49:22;;;;;;;11.85;8.95;;;;;;;12.06;100.00;-18352.66;4995462;28;20042;-85
2023/03/19 09:52:10;;;;;;;13.38;8.52;;;;;;;12.20;100.00;-18356.38;4991904;28;20057;-85
2023/03/19 09:54:45;;;;;;;14.02;8.70;;;;;;;12.24;100.00;-18357.47;4964565;28;20049;-85
2023/03/19 09:57:11;;;;;;;13.75;8.30;;;;;;;12.18;100.00;-18355.94;4975588;28;20093;-84
2023/03/19 09:59:38;;;;;;;16.60;10.60;;;;;;;12.17;100.00;-18355.53;4990176;28;20077;-85
2023/03/19 10:02:30;;;;;;;13.20;9.23;;;;;;;12.26;100.00;-18357.88;4973803;28;20046;-85
2023/03/19 10:04:59;;;;;;;16.83;10.90;;;;;;;12.31;100.00;-18359.25;4979471;28;20051;-84
2023/03/19 10:07:39;;;;;;;;;;;;;;;12.10;100.00;-18353.63;4959148;28;20741;-85
2023/03/19 10:10:30;;;;;;;12.48;8.75;;;;;;;12.05;100.00;-18352.25;4959297;28;19930;-84
2023/03/19 10:13:26;;;;;;;10.90;7.70;;;;;;;11.99;100.00;-18350.59;4977061;28;20046;-84
2023/03/19 10:15:53;;;;;;;11.90;8.40;;;;;;;11.93;100.00;-18349.09;4979209;28;20162;-84
2023/03/19 10:18:24;;;;;;;11.15;7.10;;;;;;;11.98;100.00;-18350.47;4976911;28;20141;-84
2023/03/19 10:21:11;;;;;;;13.88;8.25;;;;;;;12.12;100.00;-18354.16;4980987;28;20046;-84
2023/03/19 10:23:41;;;;;;;10.77;7.38;;;;;;;12.23;100.00;-18357.19;4975356;28;20050;-84
2023/03/19 10:26:15;;;;;;;10.82;7.28;;;;;;;12.33;100.00;-18359.78;4958448;28;20050;-85
2023/03/19 10:28:44;;;;;;;9.95;6.13;;;;;;;12.36;100.00;-18360.75;4960302;28;20130;-85
2023/03/19 10:31:29;;;;;;;11.30;6.47;;;;;;;12.41;100.00;-18362.13;4977012;28;20054;-85
2023/03/19 10:34:42;;;;;;;10.50;7.32;;;;;;;12.62;100.00;-18367.75;4960131;28;20047;-86
2023/03/19 10:37:36;;;;;;;9.25;6.43;;;;;;;12.87;100.00;-18374.47;4958139;28;20061;-85
2023/03/19 10:40:01;;;;;;;9.95;6.43;;;;;;;13.08;100.00;-18379.94;4979550;28;20041;-89
2023/03/19 10:42:30;;;;;;;10.30;7.40;;;;;;;13.08;100.00;-18379.94;4967020;28;20050;-84
2023/03/19 10:45:01;;;;;;;9.98;7.70;;;;;;;13.19;100.00;-18382.97;4971053;28;20038;-84
2023/03/19 10:47:26;;;;;;;11.57;6.75;;;;;;;13.20;100.00;-18383.22;4973091;28;20051;-84
2023/03/19 10:49:52;;;;;;;11.05;7.63;;;;;;;13.19;100.00;-18382.97;4967931;28;20046;-85
2023/03/19 10:52:22;;;;;;;9.68;7.03;;;;;;;13.28;100.00;-18385.28;4973613;28;20122;-85
2023/03/19 10:54:54;;;;;;;10.48;7.20;;;;;;;13.48;100.00;-18390.78;4969678;28;20050;-84
2023/03/19 10:57:30;;;;;;;8.10;6.10;;;;;;;13.43;100.00;-18389.28;4967434;28;20125;-84
2023/03/19 11:00:02;;;;;;;9.48;6.35;;;;;;;13.44;100.00;-18389.56;4965579;28;20118;-85
2023/03/19 11:02:31;;;;;;;11.48;7.72;;;;;;;13.47;100.00;-18390.38;4971466;28;20074;-84
2023/03/19 11:05:11;;;;;;;8.15;5.07;;;;;;;13.48;100.00;-18390.66;4972504;28;20039;-85
2023/03/19 11:07:37;;;;;;;8.02;5.45;;;;;;;13.48;100.00;-18390.66;4973150;28;20046;-85
2023/03/19 11:10:03;;;;;;;11.98;7.47;;;;;;;13.52;100.00;-18391.75;4967960;28;20390;-84